createdAt,value
2023-04-28T00:02:20.010Z,7.90
2023-04-28T00:04:47.728Z,7.90
2023-04-28T00:07:15.177Z,7.90
2023-04-28T00:09:42.401Z,7.90
2023-04-28T00:12:09.470Z,7.90
2023-04-28T00:14:36.655Z,7.90
2023-04-28T00:17:04.872Z,7.90
2023-04-28T00:19:32.753Z,7.90
2023-04-28T00:22:00.263Z,7.90
2023-04-28T00:24:27.453Z,7.90
2023-04-28T00:26:54.557Z,7.90
2023-04-28T00:29:21.764Z,7.90
2023-04-28T00:31:49.047Z,7.90
2023-04-28T00:34:16.477Z,7.90
2023-04-28T00:36:43.944Z,7.90
2023-04-28T00:39:11.216Z,7.90
2023-04-28T00:41:38.364Z,7.90
2023-04-28T00:44:05.521Z,7.90
2023-04-28T00:46:34.266Z,7.90
2023-04-28T00:49:01.751Z,7.90
2023-04-28T00:51:29.219Z,7.90
2023-04-28T00:53:57.189Z,7.90
2023-04-28T00:56:24.451Z,7.90
2023-04-28T00:58:51.710Z,7.90
2023-04-28T01:01:19.375Z,7.90
2023-04-28T01:03:47.483Z,7.90
2023-04-28T01:06:17.185Z,7.90
2023-04-28T01:08:48.904Z,7.90
2023-04-28T01:11:17.575Z,7.90
2023-04-28T01:14:08.053Z,7.90
2023-04-28T01:16:39.049Z,7.90
2023-04-28T01:19:16.334Z,7.90
2023-04-28T01:21:44.040Z,7.90
2023-04-28T01:24:18.903Z,7.90
2023-04-28T01:26:46.458Z,7.90
2023-04-28T01:29:13.723Z,7.90
2023-04-28T01:31:42.043Z,7.90
2023-04-28T01:34:09.187Z,7.90
2023-04-28T01:36:37.686Z,7.90
2023-04-28T01:39:05.693Z,7.90
2023-04-28T01:41:36.041Z,7.90
2023-04-28T01:44:06.300Z,7.90
2023-04-28T01:46:34.094Z,7.90
2023-04-28T01:49:01.483Z,7.90
2023-04-28T01:51:28.608Z,7.90
2023-04-28T01:53:55.938Z,7.90
2023-04-28T01:56:24.083Z,7.90
2023-04-28T01:58:52.796Z,7.90
2023-04-28T02:01:20.093Z,7.90
2023-04-28T02:03:49.321Z,7.90
2023-04-28T02:06:17.638Z,7.90
2023-04-28T02:08:45.517Z,8.00
2023-04-28T02:11:13.593Z,8.00
2023-04-28T02:13:41.754Z,8.00
2023-04-28T02:16:09.978Z,8.00
2023-04-28T02:18:37.102Z,8.00
2023-04-28T02:21:11.899Z,8.00
2023-04-28T02:23:40.484Z,8.00
2023-04-28T02:26:07.719Z,8.00
2023-04-28T02:28:34.918Z,7.90
2023-04-28T02:31:09.828Z,7.90
2023-04-28T02:33:38.015Z,7.90
2023-04-28T02:36:06.833Z,7.90
2023-04-28T02:38:34.211Z,7.90
2023-04-28T02:41:03.021Z,7.90
2023-04-28T02:43:30.543Z,7.90
2023-04-28T02:45:57.994Z,7.90
2023-04-28T02:48:26.473Z,7.90
2023-04-28T02:50:54.088Z,7.90
2023-04-28T02:53:22.240Z,7.90
2023-04-28T02:55:50.287Z,7.90
2023-04-28T02:58:18.421Z,7.90
2023-04-28T03:00:47.265Z,7.90
2023-04-28T03:03:15.248Z,7.90
2023-04-28T03:05:42.620Z,7.90
2023-04-28T03:08:09.740Z,8.00
2023-04-28T03:10:36.899Z,8.00
2023-04-28T03:13:04.884Z,8.00
2023-04-28T03:15:32.139Z,8.00
2023-04-28T03:17:59.416Z,8.00
2023-04-28T03:20:26.648Z,8.00
2023-04-28T03:22:54.306Z,8.00
2023-04-28T03:25:21.526Z,8.00
2023-04-28T03:27:52.587Z,8.00
2023-04-28T03:30:20.037Z,8.00
2023-04-28T03:32:47.199Z,8.00
2023-04-28T03:35:15.688Z,8.00
2023-04-28T03:37:43.936Z,8.00
2023-04-28T03:40:12.011Z,8.00
2023-04-28T03:43:11.641Z,8.00
2023-04-28T03:45:59.113Z,8.10
2023-04-28T03:48:26.373Z,8.10
2023-04-28T03:50:53.669Z,8.10
2023-04-28T03:53:20.907Z,8.10
2023-04-28T03:55:48.553Z,8.10
2023-04-28T03:58:15.886Z,8.10
2023-04-28T04:00:42.984Z,8.10
2023-04-28T04:03:10.694Z,8.10
2023-04-28T04:05:41.417Z,8.10
2023-04-28T04:08:09.149Z,8.10
2023-04-28T04:10:36.302Z,8.10
2023-04-28T04:13:03.470Z,8.10
2023-04-28T04:15:31.026Z,8.10
2023-04-28T04:17:58.517Z,8.10
2023-04-28T04:20:28.533Z,8.10
2023-04-28T04:22:55.735Z,8.10
2023-04-28T04:25:23.546Z,8.10
2023-04-28T04:27:52.078Z,8.10
2023-04-28T04:30:19.215Z,8.10
2023-04-28T04:32:46.474Z,8.10
2023-04-28T04:35:14.353Z,8.10
2023-04-28T04:37:41.550Z,8.10
2023-04-28T04:40:09.300Z,8.10
2023-04-28T04:42:43.128Z,8.10
2023-04-28T04:45:14.050Z,8.10
2023-04-28T04:47:42.573Z,8.10
2023-04-28T04:50:11.038Z,8.10
2023-04-28T04:52:38.516Z,8.10
2023-04-28T04:55:08.144Z,8.10
2023-04-28T04:57:35.410Z,8.10
2023-04-28T05:00:27.570Z,8.10
2023-04-28T05:02:55.427Z,8.10
2023-04-28T05:05:23.136Z,8.10
2023-04-28T05:08:12.653Z,8.10
2023-04-28T05:10:40.180Z,8.10
2023-04-28T05:13:14.676Z,8.10
2023-04-28T05:15:42.100Z,8.10
2023-04-28T05:18:29.544Z,8.10
2023-04-28T05:20:56.737Z,8.10
2023-04-28T05:23:24.839Z,8.10
2023-04-28T05:25:52.041Z,8.00
2023-04-28T05:28:21.400Z,8.10
2023-04-28T05:30:50.872Z,8.10
2023-04-28T05:33:18.100Z,8.10
2023-04-28T05:35:45.412Z,8.10
2023-04-28T05:38:12.713Z,8.10
2023-04-28T05:40:46.292Z,8.10
2023-04-28T05:43:14.304Z,8.10
2023-04-28T05:45:42.121Z,8.10
2023-04-28T05:48:09.646Z,8.10
2023-04-28T05:50:39.183Z,8.10
2023-04-28T05:53:07.674Z,8.10
2023-04-28T05:55:36.520Z,8.20
2023-04-28T05:58:04.692Z,8.20
2023-04-28T06:00:34.425Z,8.20
2023-04-28T06:03:02.280Z,8.20
2023-04-28T06:05:30.041Z,8.20
2023-04-28T06:07:57.545Z,8.20
2023-04-28T06:10:26.845Z,8.20
2023-04-28T06:12:54.004Z,8.20
2023-04-28T06:15:21.234Z,8.20
2023-04-28T06:17:48.757Z,8.20
2023-04-28T06:20:16.890Z,8.20
2023-04-28T06:22:44.637Z,8.30
2023-04-28T06:25:12.338Z,8.30
2023-04-28T06:27:44.893Z,8.30
2023-04-28T06:30:19.219Z,8.30
2023-04-28T06:32:47.467Z,8.40
2023-04-28T06:35:16.450Z,8.40
2023-04-28T06:37:43.837Z,8.40
2023-04-28T06:40:11.507Z,8.40
2023-04-28T06:42:42.765Z,8.50
2023-04-28T06:45:18.917Z,8.50
2023-04-28T06:47:46.417Z,8.50
2023-04-28T06:50:13.649Z,8.60
2023-04-28T06:52:40.848Z,8.60
2023-04-28T06:55:11.768Z,8.60
2023-04-28T06:57:39.073Z,8.70
2023-04-28T07:00:06.957Z,8.70
2023-04-28T07:02:34.364Z,8.80
2023-04-28T07:05:01.625Z,8.80
2023-04-28T07:07:28.810Z,8.80
2023-04-28T07:09:56.157Z,8.80
2023-04-28T07:12:23.502Z,8.80
2023-04-28T07:14:51.116Z,8.90
2023-04-28T07:17:18.260Z,8.80
2023-04-28T07:19:45.455Z,8.80
2023-04-28T07:22:12.665Z,8.80
2023-04-28T07:24:39.879Z,8.90
2023-04-28T07:27:06.981Z,8.90
2023-04-28T07:29:35.203Z,8.90
2023-04-28T07:32:07.337Z,8.90
2023-04-28T07:34:35.979Z,8.90
2023-04-28T07:37:04.127Z,9.00
2023-04-28T07:39:35.408Z,9.00
2023-04-28T07:42:03.470Z,9.10
2023-04-28T07:44:31.750Z,9.10
2023-04-28T07:47:00.293Z,9.10
2023-04-28T07:49:30.946Z,9.10
2023-04-28T07:51:58.275Z,9.20
2023-04-28T07:54:25.868Z,9.20
2023-04-28T07:56:58.389Z,9.20
2023-04-28T07:59:27.043Z,9.30
2023-04-28T08:01:54.762Z,9.30
2023-04-28T08:04:22.481Z,9.30
2023-04-28T08:06:50.159Z,9.40
2023-04-28T08:09:17.359Z,9.40
2023-04-28T08:11:44.487Z,9.40
2023-04-28T08:14:11.673Z,9.50
2023-04-28T08:16:41.532Z,9.50
2023-04-28T08:19:08.914Z,9.50
2023-04-28T08:21:36.553Z,9.60
2023-04-28T08:24:03.807Z,9.60
2023-04-28T08:26:31.370Z,9.60
2023-04-28T08:28:58.390Z,9.70
2023-04-28T08:31:25.681Z,9.70
2023-04-28T08:33:53.543Z,9.80
2023-04-28T08:36:25.147Z,9.80
2023-04-28T08:38:52.924Z,9.90
2023-04-28T08:41:20.241Z,9.90
2023-04-28T08:43:47.684Z,10.00
2023-04-28T08:46:16.281Z,10.00
2023-04-28T08:48:45.915Z,10.10
2023-04-28T08:51:24.437Z,10.10
2023-04-28T08:56:31.971Z,10.20
2023-04-28T08:59:04.260Z,10.20
2023-04-28T09:01:32.911Z,10.30
2023-04-28T09:04:04.050Z,10.30
2023-04-28T09:06:37.543Z,10.40
2023-04-28T09:09:23.594Z,10.50
2023-04-28T09:11:59.885Z,10.50
2023-04-28T09:14:28.928Z,10.60
2023-04-28T09:16:57.077Z,10.50
2023-04-28T09:19:24.654Z,10.60
2023-04-28T09:21:51.776Z,10.60
2023-04-28T09:24:33.997Z,10.70
2023-04-28T09:27:05.843Z,10.70
2023-04-28T09:29:33.749Z,10.70
2023-04-28T09:32:18.720Z,10.70
2023-04-28T09:34:49.877Z,10.70
2023-04-28T09:37:17.923Z,10.80
2023-04-28T09:39:46.353Z,10.80
2023-04-28T09:42:36.992Z,10.90
2023-04-28T09:45:15.323Z,10.90
2023-04-28T09:47:44.260Z,10.90
2023-04-28T09:50:15.085Z,10.90
2023-04-28T09:52:49.019Z,11.00
2023-04-28T09:55:16.474Z,11.00
2023-04-28T09:57:47.965Z,11.00
2023-04-28T10:00:18.876Z,11.10
2023-04-28T10:02:46.449Z,11.10
2023-04-28T10:05:17.433Z,11.20
2023-04-28T10:07:45.272Z,11.20
2023-04-28T10:10:14.873Z,11.20
2023-04-28T10:12:44.206Z,11.30
2023-04-28T10:15:13.341Z,11.30
2023-04-28T10:17:40.826Z,11.30
2023-04-28T10:20:09.111Z,11.30
2023-04-28T10:23:13.851Z,11.30
2023-04-28T10:25:43.619Z,11.30
2023-04-28T10:28:11.678Z,11.30
2023-04-28T10:30:39.156Z,11.40
2023-04-28T10:33:09.714Z,11.40
2023-04-28T10:35:41.093Z,11.50
2023-04-28T10:38:16.597Z,11.60
2023-04-28T10:40:47.514Z,11.60
2023-04-28T10:43:37.784Z,11.70
2023-04-28T10:46:09.784Z,11.70
2023-04-28T10:48:49.389Z,11.70
2023-04-28T10:51:16.549Z,11.70
2023-04-28T10:53:47.450Z,11.70
2023-04-28T10:56:16.905Z,11.60
2023-04-28T10:58:46.373Z,11.60
2023-04-28T11:01:24.332Z,11.60
2023-04-28T11:04:00.887Z,11.60
2023-04-28T11:06:42.344Z,11.50
2023-04-28T11:09:15.988Z,11.50
2023-04-28T11:11:58.036Z,11.60
2023-04-28T11:14:35.301Z,11.60
2023-04-28T11:17:07.896Z,11.60
2023-04-28T11:19:41.026Z,11.60
2023-04-28T11:22:23.519Z,11.60
2023-04-28T11:25:02.751Z,11.70
2023-04-28T11:27:34.636Z,11.70
2023-04-28T11:30:02.274Z,11.70
2023-04-28T11:32:35.027Z,11.70
2023-04-28T11:35:04.586Z,11.70
2023-04-28T11:37:32.004Z,11.60
2023-04-28T11:39:59.211Z,11.50
2023-04-28T11:42:28.469Z,11.40
2023-04-28T11:44:56.576Z,11.40
2023-04-28T11:47:34.550Z,11.30
2023-04-28T11:50:03.364Z,11.30
2023-04-28T11:52:30.788Z,11.30
2023-04-28T11:55:00.536Z,11.30
2023-04-28T11:57:28.189Z,11.30
2023-04-28T12:00:14.466Z,11.30
2023-04-28T12:02:42.278Z,11.30
2023-04-28T12:05:10.991Z,11.30
2023-04-28T12:07:45.688Z,11.30
2023-04-28T12:10:17.030Z,11.40
2023-04-28T12:12:51.971Z,11.40
2023-04-28T12:15:21.670Z,11.40
2023-04-28T12:17:50.928Z,11.40
2023-04-28T12:20:38.647Z,11.40
2023-04-28T12:23:06.553Z,11.40
2023-04-28T12:25:43.650Z,11.40
2023-04-28T12:28:11.325Z,11.40
2023-04-28T12:30:47.182Z,11.40
2023-04-28T12:33:27.632Z,11.50
2023-04-28T12:35:56.607Z,11.50
2023-04-28T12:38:24.749Z,11.50
2023-04-28T12:40:52.379Z,11.50
2023-04-28T12:43:19.666Z,11.50
2023-04-28T12:45:47.062Z,11.50
2023-04-28T12:48:14.429Z,11.50
2023-04-28T12:50:41.753Z,11.50
2023-04-28T12:53:08.940Z,11.50
2023-04-28T12:55:36.125Z,11.50
2023-04-28T12:58:03.268Z,11.50
2023-04-28T13:00:30.530Z,11.60
2023-04-28T13:02:58.793Z,11.60
2023-04-28T13:05:26.281Z,11.70
2023-04-28T13:07:54.300Z,11.70
2023-04-28T13:10:23.349Z,11.80
2023-04-28T13:12:50.703Z,11.80
2023-04-28T13:15:18.103Z,11.80
2023-04-28T13:17:46.572Z,11.90
2023-04-28T13:20:13.847Z,12.00
2023-04-28T13:22:41.814Z,12.00
2023-04-28T13:25:09.774Z,12.00
2023-04-28T13:27:37.759Z,12.10
2023-04-28T13:30:06.110Z,12.10
2023-04-28T13:32:33.627Z,12.20
2023-04-28T13:35:00.819Z,12.20
2023-04-28T13:37:28.138Z,12.30
2023-04-28T13:39:55.434Z,12.30
2023-04-28T13:42:22.486Z,12.30
2023-04-28T13:44:49.571Z,12.40
2023-04-28T13:47:16.661Z,12.40
2023-04-28T13:49:44.006Z,12.30
2023-04-28T13:52:11.159Z,12.20
2023-04-28T13:54:38.446Z,12.00
2023-04-28T13:57:05.547Z,11.70
2023-04-28T13:59:34.107Z,11.50
2023-04-28T14:02:01.427Z,11.40
2023-04-28T14:04:28.797Z,11.30
2023-04-28T14:06:56.312Z,11.20
2023-04-28T14:09:23.938Z,11.10
2023-04-28T14:11:51.096Z,11.10
2023-04-28T14:14:18.573Z,11.00
2023-04-28T14:16:46.049Z,11.00
2023-04-28T14:19:17.460Z,10.90
2023-04-28T14:21:44.748Z,10.90
2023-04-28T14:24:11.858Z,10.90
2023-04-28T14:26:39.088Z,10.90
2023-04-28T14:29:06.456Z,10.80
2023-04-28T14:31:34.092Z,10.80
2023-04-28T14:34:01.524Z,10.80
2023-04-28T14:36:28.817Z,10.80
2023-04-28T14:38:55.939Z,10.70
2023-04-28T14:41:23.128Z,10.70
2023-04-28T14:43:50.526Z,10.70
2023-04-28T14:46:19.667Z,10.70
2023-04-28T14:48:46.798Z,10.70
2023-04-28T14:51:13.983Z,10.60
2023-04-28T14:53:42.101Z,10.60
2023-04-28T14:56:18.495Z,10.50
2023-04-28T14:58:47.477Z,10.50
2023-04-28T15:01:14.628Z,10.50
2023-04-28T15:03:42.084Z,10.50
2023-04-28T15:06:09.373Z,10.50
2023-04-28T15:08:36.839Z,10.50
2023-04-28T15:11:03.984Z,10.50
2023-04-28T15:13:31.391Z,10.60
2023-04-28T15:15:58.682Z,10.60
2023-04-28T15:18:25.981Z,10.60
2023-04-28T15:20:53.106Z,10.50
2023-04-28T15:23:20.428Z,10.50
2023-04-28T15:25:49.977Z,10.50
2023-04-28T15:28:17.133Z,10.50
2023-04-28T15:30:44.229Z,10.50
2023-04-28T15:33:17.400Z,10.50
2023-04-28T15:35:45.249Z,10.50
2023-04-28T15:38:12.899Z,10.40
2023-04-28T15:40:41.035Z,10.40
2023-04-28T15:43:08.394Z,10.40
2023-04-28T15:45:36.558Z,10.30
2023-04-28T15:48:06.251Z,10.30
2023-04-28T15:50:33.679Z,10.30
2023-04-28T15:53:00.999Z,10.30
2023-04-28T15:55:28.324Z,10.30
2023-04-28T15:57:56.501Z,10.30
2023-04-28T16:00:23.776Z,10.20
2023-04-28T16:02:51.575Z,10.20
2023-04-28T16:05:18.906Z,10.20
2023-04-28T16:07:46.224Z,10.20
2023-04-28T16:10:15.435Z,10.20
2023-04-28T16:12:43.161Z,10.20
2023-04-28T16:15:13.041Z,10.20
2023-04-28T16:17:41.652Z,10.20
2023-04-28T16:20:10.266Z,10.20
2023-04-28T16:22:40.604Z,10.10
2023-04-28T16:25:09.320Z,10.10
2023-04-28T16:27:37.169Z,10.00
2023-04-28T16:30:09.041Z,9.90
2023-04-28T16:32:38.412Z,9.80
2023-04-28T16:35:06.581Z,9.70
2023-04-28T16:37:33.906Z,9.70
2023-04-28T16:40:01.464Z,9.70
2023-04-28T16:42:28.593Z,9.60
2023-04-28T16:44:55.903Z,9.60
2023-04-28T16:47:31.448Z,9.50
2023-04-28T16:49:59.120Z,9.50
2023-04-28T16:52:27.668Z,9.50
2023-04-28T16:54:55.116Z,9.50
2023-04-28T16:57:22.331Z,9.50
2023-04-28T16:59:51.092Z,9.50
2023-04-28T17:02:18.672Z,9.50
2023-04-28T17:04:46.020Z,9.50
2023-04-28T17:07:13.194Z,9.40
2023-04-28T17:09:40.400Z,9.40
2023-04-28T17:12:07.616Z,9.40
2023-04-28T17:14:38.236Z,9.40
2023-04-28T17:17:05.856Z,9.40
2023-04-28T17:19:33.312Z,9.40
2023-04-28T17:22:00.816Z,9.30
2023-04-28T17:24:28.125Z,9.30
2023-04-28T17:26:55.576Z,9.30
2023-04-28T17:29:22.845Z,9.30
2023-04-28T17:31:50.123Z,9.30
2023-04-28T17:34:20.034Z,9.20
2023-04-28T17:36:47.367Z,9.20
2023-04-28T17:39:16.393Z,9.20
2023-04-28T17:41:45.147Z,9.10
2023-04-28T17:44:12.685Z,9.10
2023-04-28T17:46:40.021Z,9.10
2023-04-28T17:49:07.257Z,9.10
2023-04-28T17:51:34.396Z,9.10
2023-04-28T17:54:01.471Z,9.10
2023-04-28T17:56:29.660Z,9.10
2023-04-28T17:58:57.052Z,9.00
2023-04-28T18:01:24.560Z,9.00
2023-04-28T18:03:51.872Z,9.00
2023-04-28T18:06:22.418Z,8.90
2023-04-28T18:08:50.020Z,8.80
2023-04-28T18:11:17.239Z,8.80
2023-04-28T18:13:44.418Z,8.80
2023-04-28T18:16:14.908Z,8.70
2023-04-28T18:18:45.287Z,8.70
2023-04-28T18:21:12.388Z,8.70
2023-04-28T18:23:40.695Z,8.60
2023-04-28T18:26:07.898Z,8.70
2023-04-28T18:28:35.037Z,8.60
2023-04-28T18:31:06.387Z,8.60
2023-04-28T18:33:33.662Z,8.60
2023-04-28T18:36:06.370Z,8.60
2023-04-28T18:38:36.535Z,8.60
2023-04-28T18:41:14.538Z,8.60
2023-04-28T18:43:42.858Z,8.60
2023-04-28T18:46:12.805Z,8.60
2023-04-28T18:48:40.433Z,8.60
2023-04-28T18:51:07.629Z,8.50
2023-04-28T18:53:36.137Z,8.50
2023-04-28T18:56:03.348Z,8.60
2023-04-28T18:58:30.699Z,8.60
2023-04-28T19:00:57.911Z,8.60
2023-04-28T19:03:25.153Z,8.60
2023-04-28T19:05:52.396Z,8.60
2023-04-28T19:08:19.790Z,8.60
2023-04-28T19:10:49.071Z,8.50
2023-04-28T19:13:16.311Z,8.50
2023-04-28T19:15:43.509Z,8.40
2023-04-28T19:18:11.002Z,8.40
2023-04-28T19:20:38.144Z,8.40
2023-04-28T19:23:05.433Z,8.30
2023-04-28T19:25:35.806Z,8.30
2023-04-28T19:28:02.946Z,8.30
2023-04-28T19:30:30.135Z,8.30
2023-04-28T19:32:57.449Z,8.20
2023-04-28T19:35:24.761Z,8.20
2023-04-28T19:37:51.984Z,8.20
2023-04-28T19:40:19.356Z,8.20
2023-04-28T19:42:46.613Z,8.10
2023-04-28T19:45:14.260Z,8.10
2023-04-28T19:47:41.564Z,8.00
2023-04-28T19:50:10.208Z,8.00
2023-04-28T19:52:37.649Z,8.00
2023-04-28T19:55:05.082Z,8.00
2023-04-28T19:57:32.531Z,8.00
2023-04-28T19:59:59.835Z,8.00
2023-04-28T20:02:27.113Z,7.90
2023-04-28T20:04:54.348Z,7.90
2023-04-28T20:07:21.815Z,7.90
2023-04-28T20:09:49.153Z,7.90
2023-04-28T20:12:16.483Z,7.80
2023-04-28T20:14:44.987Z,7.80
2023-04-28T20:17:12.449Z,7.80
2023-04-28T20:19:39.744Z,7.80
2023-04-28T20:22:08.691Z,7.80
2023-04-28T20:24:37.438Z,7.80
2023-04-28T20:27:04.584Z,7.80
2023-04-28T20:29:35.094Z,7.80
2023-04-28T20:32:03.599Z,7.80
2023-04-28T20:34:31.644Z,7.70
2023-04-28T20:36:59.862Z,7.70
2023-04-28T20:39:27.178Z,7.70
2023-04-28T20:41:54.431Z,7.70
2023-04-28T20:44:24.638Z,7.80
2023-04-28T20:46:58.507Z,7.80
2023-04-28T20:49:29.627Z,7.80
2023-04-28T20:52:04.920Z,7.80
2023-04-28T20:54:36.309Z,7.80
2023-04-28T20:57:04.993Z,7.80
2023-04-28T20:59:35.559Z,7.80
2023-04-28T21:02:05.320Z,7.80
2023-04-28T21:04:32.946Z,7.80
2023-04-28T21:07:00.394Z,7.80
2023-04-28T21:09:27.697Z,7.80
2023-04-28T21:11:55.271Z,7.80
2023-04-28T21:14:22.474Z,7.80
2023-04-28T21:16:49.628Z,7.80
2023-04-28T21:19:17.527Z,7.80
2023-04-28T21:21:45.240Z,7.80
2023-04-28T21:24:12.907Z,7.80
2023-04-28T21:26:40.857Z,7.70
2023-04-28T21:29:09.382Z,7.70
2023-04-28T21:31:36.688Z,7.70
2023-04-28T21:34:04.174Z,7.70
2023-04-28T21:36:31.373Z,7.70
2023-04-28T21:38:58.589Z,7.60
2023-04-28T21:41:25.994Z,7.60
2023-04-28T21:43:53.107Z,7.60
2023-04-28T21:46:20.428Z,7.60
2023-04-28T21:48:48.052Z,7.60
2023-04-28T21:51:15.284Z,7.50
2023-04-28T21:53:42.774Z,7.50
2023-04-28T21:56:10.002Z,7.50
2023-04-28T21:58:37.424Z,7.40
2023-04-28T22:01:05.414Z,7.40
2023-04-28T22:03:35.455Z,7.40
2023-04-28T22:06:03.350Z,7.40
2023-04-28T22:08:31.802Z,7.40
2023-04-28T22:11:00.525Z,7.50
2023-04-28T22:13:27.724Z,7.50
2023-04-28T22:15:56.185Z,7.50
2023-04-28T22:18:23.458Z,7.50
2023-04-28T22:20:56.960Z,7.50
2023-04-28T22:23:24.174Z,7.50
2023-04-28T22:25:52.097Z,7.40
2023-04-28T22:28:19.751Z,7.40
2023-04-28T22:30:47.613Z,7.40
2023-04-28T22:33:15.263Z,7.30
2023-04-28T22:35:42.632Z,7.20
2023-04-28T22:38:09.935Z,7.10
2023-04-28T22:40:37.184Z,7.10
2023-04-28T22:43:04.398Z,7.10
2023-04-28T22:45:31.433Z,7.10
2023-04-28T22:47:58.561Z,7.00
2023-04-28T22:50:25.695Z,7.00
2023-04-28T22:52:52.930Z,7.00
2023-04-28T22:55:20.563Z,7.00
2023-04-28T22:57:49.631Z,7.00
2023-04-28T23:00:16.951Z,6.90
2023-04-28T23:02:45.351Z,6.90
2023-04-28T23:05:12.912Z,6.90
2023-04-28T23:07:40.330Z,6.90
2023-04-28T23:10:08.767Z,6.90
2023-04-28T23:12:35.928Z,6.90
2023-04-28T23:15:03.355Z,6.90
2023-04-28T23:17:30.722Z,6.90
2023-04-28T23:19:57.899Z,6.80
2023-04-28T23:22:25.185Z,6.80
2023-04-28T23:24:52.446Z,6.80
2023-04-28T23:27:19.850Z,6.80
2023-04-28T23:29:46.994Z,6.80
2023-04-28T23:32:14.105Z,6.70
2023-04-28T23:34:42.783Z,6.70
2023-04-28T23:37:10.523Z,6.70
2023-04-28T23:39:37.697Z,6.70
2023-04-28T23:42:05.035Z,6.70
2023-04-28T23:44:32.168Z,6.60
2023-04-28T23:46:59.300Z,6.70
2023-04-28T23:49:26.497Z,6.60
2023-04-28T23:51:53.609Z,6.60
2023-04-28T23:54:20.694Z,6.60
2023-04-28T23:56:49.214Z,6.60
2023-04-28T23:59:16.714Z,6.60
